Time;durP1;ratioP1;P1;durP2;ratioP2;P2;SDS_P1;SDS_P2;PMS_P1;PMS_P2;Temp;Humidity;BMP_temperature;BMP_pressure;BME280_temperature;BME280_humidity;BME280_pressure;Samples;Min_cycle;Max_cycle;Signal;HPM_P1;HPM_P2
2023/05/28 00:00:21;;;;;;;5.00;3.00;;;11.50;1.00;;;;;;5054614;28;20201;-78
2023/05/28 00:02:47;;;;;;;6.00;3.10;;;11.60;1.00;;;;;;5073602;28;20176;-79
2023/05/28 00:05:13;;;;;;;4.83;2.80;;;11.70;99.90;;;;;;5072944;28;20241;-78
2023/05/28 00:07:39;;;;;;;6.47;2.77;;;11.80;99.90;;;;;;5072675;28;20184;-78
2023/05/28 00:10:05;;;;;;;5.30;2.90;;;11.70;1.00;;;;;;5071257;28;20208;-78
2023/05/28 00:12:30;;;;;;;3.67;2.80;;;11.60;65.20;;;;;;5073239;28;20200;-79
2023/05/28 00:14:56;;;;;;;3.93;2.80;;;11.60;99.90;;;;;;5055490;28;20165;-79
2023/05/28 00:17:22;;;;;;;4.87;2.93;;;11.60;99.90;;;;;;5055127;28;20180;-79
2023/05/28 00:19:51;;;;;;;3.67;2.53;;;11.40;99.90;;;;;;5073561;28;20267;-76
2023/05/28 00:22:17;;;;;;;4.03;2.83;;;11.30;1.00;;;;;;5054184;28;20208;-79
2023/05/28 00:24:42;;;;;;;5.67;3.07;;;11.20;99.90;;;;;;5064409;28;20218;-78
2023/05/28 00:27:08;;;;;;;5.77;3.03;;;11.20;99.90;;;;;;5071673;28;20196;-79
2023/05/28 00:29:33;;;;;;;4.20;2.70;;;11.10;1.00;;;;;;5046466;28;20252;-78
2023/05/28 00:31:59;;;;;;;5.67;3.07;;;11.00;1.00;;;;;;5071319;28;20177;-78
2023/05/28 00:34:25;;;;;;;4.63;2.90;;;10.90;1.00;;;;;;5072508;28;20200;-79
2023/05/28 00:36:51;;;;;;;4.60;2.70;;;10.90;1.00;;;;;;5058372;28;20181;-78
2023/05/28 00:39:18;;;;;;;6.83;3.10;;;10.80;1.00;;;;;;5072267;28;20223;-78
2023/05/28 00:41:44;;;;;;;4.80;3.00;;;10.90;1.00;;;;;;5072006;28;20193;-78
2023/05/28 00:44:09;;;;;;;4.90;3.10;;;10.80;1.00;;;;;;5071578;28;20177;-79
2023/05/28 00:46:44;;;;;;;5.13;2.70;;;11.00;99.90;;;;;;5062852;28;20199;-79
2023/05/28 00:49:10;;;;;;;4.67;2.87;;;11.00;1.00;;;;;;5071859;28;20184;-78
2023/05/28 00:51:36;;;;;;;5.27;3.20;;;10.80;1.00;;;;;;5062174;28;20292;-79
2023/05/28 00:54:03;;;;;;;4.80;2.80;;;11.00;99.90;;;;;;5072364;28;20559;-78
2023/05/28 00:56:31;;;;;;;6.03;2.80;;;10.90;1.00;;;;;;5070935;28;20203;-79
2023/05/28 00:58:59;;;;;;;4.70;2.80;;;10.90;1.00;;;;;;5054687;28;20556;-79
2023/05/28 01:01:26;;;;;;;6.23;2.90;;;10.90;99.90;;;;;;5053505;28;20216;-78
2023/05/28 01:03:51;;;;;;;4.63;3.13;;;10.90;1.00;;;;;;5051303;28;20181;-79
2023/05/28 01:06:20;;;;;;;4.30;2.90;;;11.10;1.00;;;;;;5062520;28;20574;-79
2023/05/28 01:08:47;;;;;;;4.57;2.57;;;11.10;99.90;;;;;;5054831;28;20220;-79
2023/05/28 01:11:17;;;;;;;5.80;3.13;;;10.80;1.00;;;;;;5052692;28;20209;-78
2023/05/28 01:13:44;;;;;;;3.90;2.70;;;10.70;1.00;;;;;;5053511;28;20173;-78
2023/05/28 01:16:10;;;;;;;4.97;2.90;;;10.60;99.90;;;;;;5070727;28;20173;-78
2023/05/28 01:18:39;;;;;;;5.47;2.90;;;10.70;1.00;;;;;;5054309;28;20169;-79
2023/05/28 01:21:06;;;;;;;5.10;2.97;;;10.70;24.80;;;;;;5071615;28;20223;-78
2023/05/28 01:23:45;;;;;;;6.77;2.90;;;10.60;1.00;;;;;;5053132;28;20281;-78
2023/05/28 01:26:13;;;;;;;4.47;2.80;;;10.60;1.00;;;;;;5059834;28;20184;-78
2023/05/28 01:28:44;;;;;;;4.37;2.73;;;10.40;99.90;;;;;;5072222;28;20173;-78
2023/05/28 01:31:13;;;;;;;7.07;2.93;;;10.40;99.90;;;;;;5064012;28;20270;-78
2023/05/28 01:33:41;;;;;;;4.70;2.97;;;10.10;99.90;;;;;;5072532;28;20184;-79
2023/05/28 01:36:13;;;;;;;4.97;3.03;;;10.10;1.00;;;;;;5072256;28;20201;-80
2023/05/28 01:38:40;;;;;;;4.53;2.80;;;10.00;1.00;;;;;;5072579;28;20161;-79
2023/05/28 01:41:28;;;;;;;4.53;2.90;;;10.10;1.00;;;;;;5069793;28;20263;-78
2023/05/28 01:43:54;;;;;;;5.07;2.97;;;9.80;1.00;;;;;;5065662;28;20185;-78
2023/05/28 01:46:21;;;;;;;3.97;2.90;;;9.80;39.10;;;;;;5072154;28;20188;-78
2023/05/28 01:48:47;;;;;;;4.73;2.90;;;9.90;99.90;;;;;;5068733;28;20227;-79
2023/05/28 01:51:32;;;;;;;3.70;3.03;;;9.80;99.90;;;;;;5075011;28;20209;-78
2023/05/28 01:53:58;;;;;;;6.13;2.80;;;10.00;1.00;;;;;;5075689;28;20173;-78
2023/05/28 01:56:24;;;;;;;5.27;3.10;;;9.90;90.70;;;;;;5056726;28;20184;-78
2023/05/28 01:58:50;;;;;;;4.20;3.27;;;9.90;99.90;;;;;;5074942;28;20185;-79
2023/05/28 02:01:27;;;;;;;5.53;3.27;;;9.80;1.00;;;;;;5059387;28;20291;-78
2023/05/28 02:03:53;;;;;;;5.27;2.90;;;9.70;1.00;;;;;;5065629;28;20184;-78
2023/05/28 02:06:19;;;;;;;4.80;3.23;;;9.70;1.00;;;;;;5075548;28;20181;-78
2023/05/28 02:08:45;;;;;;;6.17;3.20;;;9.70;99.90;;;;;;5074217;28;20189;-78
2023/05/28 02:11:10;;;;;;;5.03;3.10;;;9.70;1.00;;;;;;5070358;28;20342;-80
2023/05/28 02:13:36;;;;;;;7.10;3.40;;;9.70;99.90;;;;;;5065956;28;20177;-78
2023/05/28 02:16:01;;;;;;;4.70;3.30;;;9.60;99.90;;;;;;5060413;28;20177;-79
2023/05/28 02:18:27;;;;;;;4.63;3.23;;;9.60;1.00;;;;;;5075361;28;20181;-78
2023/05/28 02:20:53;;;;;;;4.60;2.90;;;9.50;99.90;;;;;;5074658;28;20763;-79
2023/05/28 02:23:18;;;;;;;4.87;3.17;;;9.60;99.90;;;;;;5075088;28;20200;-78
2023/05/28 02:25:44;;;;;;;4.00;3.10;;;9.50;99.90;;;;;;5066997;28;20181;-79
2023/05/28 02:28:10;;;;;;;5.27;3.30;;;9.60;99.90;;;;;;5074896;28;20177;-78
2023/05/28 02:30:36;;;;;;;3.20;2.90;;;9.70;1.00;;;;;;5073812;28;20216;-78
2023/05/28 02:33:01;;;;;;;4.43;2.80;;;9.90;1.00;;;;;;5060746;28;20177;-78
2023/05/28 02:35:27;;;;;;;5.53;3.20;;;9.90;1.00;;;;;;5058036;28;20173;-78
2023/05/28 02:37:52;;;;;;;4.27;3.20;;;9.80;1.00;;;;;;5075040;28;20252;-78
2023/05/28 02:40:18;;;;;;;4.03;3.17;;;9.60;1.00;;;;;;5056696;28;20561;-79
2023/05/28 02:42:43;;;;;;;5.23;3.47;;;9.70;1.00;;;;;;5073474;28;20181;-79
2023/05/28 02:45:09;;;;;;;5.40;3.10;;;9.70;1.00;;;;;;5062019;28;20181;-78
2023/05/28 02:47:35;;;;;;;6.07;3.17;;;9.80;1.00;;;;;;5070028;28;20264;-79
2023/05/28 02:50:01;;;;;;;5.37;3.30;;;9.80;99.90;;;;;;5061281;28;20687;-78
2023/05/28 02:52:26;;;;;;;6.30;3.33;;;9.90;99.90;;;;;;5056890;28;20276;-78
2023/05/28 02:54:52;;;;;;;4.67;3.30;;;9.90;19.80;;;;;;5056843;28;20197;-79
2023/05/28 02:57:17;;;;;;;5.57;3.23;;;9.70;1.00;;;;;;5057062;28;20598;-78
2023/05/28 02:59:43;;;;;;;6.60;3.20;;;9.60;16.90;;;;;;5055468;28;20581;-78
2023/05/28 03:02:08;;;;;;;4.63;2.83;;;9.50;1.00;;;;;;5074698;28;20173;-79
2023/05/28 03:04:35;;;;;;;4.80;2.83;;;9.40;1.00;;;;;;5056013;28;20177;-78
2023/05/28 03:07:01;;;;;;;5.77;3.57;;;9.30;27.70;;;;;;5074474;28;20177;-80
2023/05/28 03:09:27;;;;;;;5.27;3.30;;;9.20;1.00;;;;;;5073192;28;20299;-79
2023/05/28 03:11:52;;;;;;;4.97;3.03;;;9.20;1.00;;;;;;5056534;28;20244;-78
2023/05/28 03:14:18;;;;;;;5.87;3.20;;;9.30;99.90;;;;;;5056669;28;20169;-78
2023/05/28 03:16:43;;;;;;;5.23;2.90;;;9.10;99.30;;;;;;5057472;28;20199;-79
2023/05/28 03:19:09;;;;;;;4.00;2.87;;;9.10;99.90;;;;;;5060144;28;20196;-78
2023/05/28 03:21:35;;;;;;;5.00;3.40;;;9.00;1.00;;;;;;5055037;28;20197;-78
2023/05/28 03:24:01;;;;;;;5.30;3.10;;;9.00;63.50;;;;;;5061177;28;20628;-78
2023/05/28 03:26:26;;;;;;;5.17;3.33;;;9.10;99.90;;;;;;5072053;28;20218;-79
2023/05/28 03:28:52;;;;;;;5.00;3.50;;;9.20;32.70;;;;;;5073225;28;20173;-79
2023/05/28 03:31:20;;;;;;;5.53;3.00;;;9.30;63.70;;;;;;5073078;28;20275;-78
2023/05/28 03:33:45;;;;;;;4.47;2.90;;;9.30;99.90;;;;;;5064740;28;20168;-78
2023/05/28 03:36:11;;;;;;;4.50;3.10;;;9.40;1.00;;;;;;5073743;28;20160;-78
2023/05/28 03:38:37;;;;;;;5.03;3.10;;;9.40;1.00;;;;;;5055125;28;20184;-78
2023/05/28 03:41:02;;;;;;;4.30;3.20;;;9.30;99.90;;;;;;5058124;28;20193;-79
2023/05/28 03:43:28;;;;;;;4.87;3.10;;;9.30;99.90;;;;;;5054172;28;20180;-79
2023/05/28 03:45:53;;;;;;;4.57;3.03;;;9.40;99.90;;;;;;5053716;28;20323;-78
2023/05/28 03:48:19;;;;;;;3.07;2.73;;;9.40;1.00;;;;;;5062027;28;20173;-79
2023/05/28 03:50:44;;;;;;;4.87;3.07;;;9.30;1.00;;;;;;5066338;28;20203;-78
2023/05/28 03:53:10;;;;;;;5.07;2.90;;;9.30;1.00;;;;;;5073120;28;20187;-78
2023/05/28 03:55:35;;;;;;;5.43;3.00;;;9.20;1.00;;;;;;5073438;28;20212;-78
2023/05/28 03:58:02;;;;;;;4.07;3.10;;;9.10;99.90;;;;;;5073988;28;20191;-78
2023/05/28 04:00:27;;;;;;;6.23;3.20;;;9.00;99.90;;;;;;5055191;28;20254;-79
2023/05/28 04:02:53;;;;;;;3.17;2.50;;;8.90;1.00;;;;;;5073945;28;20576;-79
2023/05/28 04:05:18;;;;;;;4.67;2.80;;;8.80;1.00;;;;;;5052372;28;20220;-78
2023/05/28 04:07:44;;;;;;;5.57;3.10;;;8.80;1.00;;;;;;5061982;28;20201;-78
2023/05/28 04:10:10;;;;;;;4.47;3.13;;;8.80;1.00;;;;;;5068651;28;20220;-77
2023/05/28 04:12:36;;;;;;;4.80;2.90;;;8.80;1.00;;;;;;5054342;28;20183;-78
2023/05/28 04:15:02;;;;;;;6.20;3.50;;;8.80;1.00;;;;;;5072164;28;20177;-80
2023/05/28 04:17:28;;;;;;;4.33;3.10;;;8.80;1.00;;;;;;5074710;28;20654;-81
2023/05/28 04:19:54;;;;;;;4.67;3.40;;;8.70;99.90;;;;;;5071794;28;20216;-81
2023/05/28 04:22:21;;;;;;;5.73;3.30;;;8.80;1.00;;;;;;5073461;28;20243;-81
2023/05/28 04:24:47;;;;;;;3.63;3.00;;;8.80;99.90;;;;;;5073726;28;20169;-80
2023/05/28 04:27:13;;;;;;;4.30;3.10;;;8.90;99.90;;;;;;5056682;28;20262;-80
2023/05/28 04:29:38;;;;;;;3.60;3.10;;;9.00;99.90;;;;;;5063690;28;20230;-80
2023/05/28 04:32:08;;;;;;;4.20;3.10;;;9.10;1.00;;;;;;5073540;28;20179;-80
2023/05/28 04:34:34;;;;;;;4.57;3.30;;;9.10;97.30;;;;;;5074038;28;20722;-82
2023/05/28 04:37:00;;;;;;;4.30;3.00;;;9.10;1.00;;;;;;5055187;28;20200;-80
2023/05/28 04:39:26;;;;;;;5.13;3.27;;;9.20;1.00;;;;;;5073588;28;20172;-81
2023/05/28 04:41:53;;;;;;;5.47;3.20;;;9.20;1.00;;;;;;5073008;28;20226;-80
2023/05/28 04:44:19;;;;;;;5.43;3.23;;;9.20;1.00;;;;;;5057289;28;20180;-80
2023/05/28 04:46:45;;;;;;;6.00;3.60;;;9.30;99.90;;;;;;5074067;28;20169;-81
2023/05/28 04:49:12;;;;;;;5.27;3.60;;;9.30;99.90;;;;;;5073675;28;20202;-81
2023/05/28 04:51:41;;;;;;;5.63;3.90;;;9.30;99.90;;;;;;5055366;28;20264;-81
2023/05/28 04:54:07;;;;;;;3.80;3.00;;;9.40;1.00;;;;;;5073232;28;20183;-81
2023/05/28 04:56:32;;;;;;;5.10;3.27;;;9.40;1.00;;;;;;5063114;28;20185;-78
2023/05/28 04:58:58;;;;;;;5.33;3.27;;;9.40;1.00;;;;;;5053318;28;20168;-79
2023/05/28 05:01:24;;;;;;;4.77;3.20;;;9.40;1.00;;;;;;5060293;28;20211;-78
2023/05/28 05:03:50;;;;;;;4.37;3.50;;;9.40;72.00;;;;;;5053968;28;20670;-79
2023/05/28 05:06:16;;;;;;;4.40;3.60;;;9.50;1.00;;;;;;5071704;28;20245;-79
2023/05/28 05:08:41;;;;;;;7.07;3.60;;;9.50;99.90;;;;;;5070173;28;20669;-77
2023/05/28 05:11:08;;;;;;;4.73;3.40;;;9.50;1.00;;;;;;5052373;28;20208;-78
2023/05/28 05:13:34;;;;;;;5.83;3.60;;;9.50;47.10;;;;;;5062027;28;20215;-80
2023/05/28 05:15:59;;;;;;;5.73;3.60;;;9.60;99.90;;;;;;5070247;28;20204;-79
2023/05/28 05:18:25;;;;;;;4.97;3.70;;;9.60;99.90;;;;;;5071107;28;20176;-78
2023/05/28 05:20:51;;;;;;;5.40;3.73;;;9.50;1.00;;;;;;5070787;28;20357;-79
2023/05/28 05:23:16;;;;;;;5.10;3.43;;;9.60;1.00;;;;;;5075980;28;20271;-79
2023/05/28 05:25:43;;;;;;;5.77;3.97;;;9.70;1.00;;;;;;5057088;28;20635;-80
2023/05/28 05:28:09;;;;;;;5.17;3.90;;;9.80;99.90;;;;;;5075270;28;20709;-79
2023/05/28 05:30:34;;;;;;;6.57;3.77;;;9.90;19.20;;;;;;5056886;28;20236;-80
2023/05/28 05:33:00;;;;;;;6.27;3.97;;;9.90;1.00;;;;;;5056490;28;20264;-79
2023/05/28 05:35:25;;;;;;;5.50;3.73;;;10.00;99.90;;;;;;5075512;28;20180;-78
2023/05/28 05:37:51;;;;;;;6.00;3.90;;;10.00;99.90;;;;;;5057521;28;20551;-77
2023/05/28 05:40:16;;;;;;;7.07;4.70;;;10.10;99.90;;;;;;5056943;28;20201;-79
2023/05/28 05:42:42;;;;;;;7.30;4.60;;;10.30;1.00;;;;;;5056187;28;20177;-77
2023/05/28 05:45:09;;;;;;;7.23;4.90;;;10.30;99.90;;;;;;5061347;28;20239;-79
2023/05/28 05:47:35;;;;;;;6.53;4.83;;;10.40;99.90;;;;;;5068050;28;20181;-79
2023/05/28 05:50:03;;;;;;;7.33;4.53;;;10.50;1.00;;;;;;5065105;28;20247;-79
2023/05/28 05:52:28;;;;;;;7.93;4.17;;;10.50;1.00;;;;;;5075323;28;20180;-79
2023/05/28 05:54:54;;;;;;;8.17;4.83;;;10.60;1.00;;;;;;5053285;28;20226;-79
2023/05/28 05:57:19;;;;;;;7.70;4.60;;;10.60;1.00;;;;;;5061660;28;20589;-78
2023/05/28 05:59:45;;;;;;;5.33;4.10;;;10.70;99.90;;;;;;5054690;28;20197;-80
2023/05/28 06:02:11;;;;;;;7.23;4.30;;;10.80;99.90;;;;;;5076866;28;20188;-77
2023/05/28 06:04:36;;;;;;;5.63;3.97;;;10.90;1.00;;;;;;5056217;28;20301;-76
2023/05/28 06:07:06;;;;;;;6.30;4.17;;;11.00;99.90;;;;;;5075636;28;20178;-76
2023/05/28 06:09:32;;;;;;;5.77;4.33;;;11.10;99.90;;;;;;5074251;28;20185;-77
2023/05/28 06:11:59;;;;;;;6.77;4.33;;;11.10;1.00;;;;;;5057405;28;20298;-79
2023/05/28 06:14:26;;;;;;;7.37;4.10;;;11.30;1.00;;;;;;5075528;28;20251;-77
2023/05/28 06:16:52;;;;;;;6.90;4.20;;;11.30;1.00;;;;;;5075176;28;20169;-78
2023/05/28 06:19:18;;;;;;;6.13;4.50;;;11.40;1.00;;;;;;5056659;28;20176;-79
2023/05/28 06:21:43;;;;;;;6.17;4.17;;;11.50;1.00;;;;;;5078081;28;20703;-78
2023/05/28 06:24:09;;;;;;;5.80;3.93;;;11.60;1.00;;;;;;5057056;28;20674;-79
2023/05/28 06:26:34;;;;;;;7.17;4.30;;;11.70;1.00;;;;;;5074500;28;20548;-77
2023/05/28 06:29:00;;;;;;;6.33;4.10;;;11.70;1.00;;;;;;5057385;28;20250;-77
2023/05/28 06:31:25;;;;;;;6.43;4.20;;;11.80;99.90;;;;;;5073991;28;20200;-77
2023/05/28 06:33:51;;;;;;;7.90;4.50;;;11.90;99.90;;;;;;5096405;22;20250;-76
2023/05/28 06:36:17;;;;;;;7.70;4.20;;;12.00;1.00;;;;;;5058318;28;20184;-75
2023/05/28 06:38:43;;;;;;;6.97;4.53;;;12.00;1.00;;;;;;5065883;28;20177;-76
2023/05/28 06:41:09;;;;;;;9.97;4.30;;;12.10;99.90;;;;;;5081096;28;20181;-76
2023/05/28 06:43:35;;;;;;;4.73;3.80;;;12.30;1.00;;;;;;5080389;28;20240;-76
2023/05/28 06:46:01;;;;;;;8.40;4.07;;;12.40;27.30;;;;;;5059407;28;20264;-76
2023/05/28 06:48:27;;;;;;;6.60;4.30;;;12.60;99.90;;;;;;5059730;28;20590;-75
2023/05/28 06:50:52;;;;;;;9.57;4.17;;;12.80;1.00;;;;;;5075656;28;20569;-76
2023/05/28 06:53:18;;;;;;;8.53;4.10;;;12.90;99.90;;;;;;5056917;28;20205;-77
2023/05/28 06:55:43;;;;;;;5.47;4.10;;;13.00;99.90;;;;;;5078818;28;20177;-77
2023/05/28 06:58:09;;;;;;;6.83;4.23;;;13.00;1.00;;;;;;5061145;28;20180;-77
2023/05/28 07:00:35;;;;;;;8.57;4.53;;;13.10;1.00;;;;;;5059441;28;20635;-77
2023/05/28 07:03:00;;;;;;;5.57;3.60;;;13.20;1.00;;;;;;5066776;28;20215;-77
2023/05/28 07:05:26;;;;;;;5.93;3.90;;;13.30;99.90;;;;;;5061773;28;20185;-77
2023/05/28 07:07:52;;;;;;;5.53;4.07;;;13.50;99.90;;;;;;5077200;28;20176;-77
2023/05/28 07:10:17;;;;;;;7.10;4.03;;;13.60;99.90;;;;;;5076165;28;20208;-77
2023/05/28 07:12:43;;;;;;;5.23;3.80;;;13.70;99.90;;;;;;5060219;28;20307;-78
2023/05/28 07:15:10;;;;;;;6.97;3.93;;;13.90;1.00;;;;;;5059920;28;20177;-76
2023/05/28 07:17:35;;;;;;;6.03;4.20;;;14.00;1.00;;;;;;5058987;28;20176;-77
2023/05/28 07:20:01;;;;;;;8.67;3.97;;;14.20;99.90;;;;;;5058675;28;20173;-77
2023/05/28 07:22:27;;;;;;;7.57;3.67;;;14.30;1.00;;;;;;5074015;28;20597;-75
2023/05/28 07:24:52;;;;;;;5.70;3.57;;;14.40;99.90;;;;;;5058307;28;20177;-77
2023/05/28 07:27:18;;;;;;;10.03;3.90;;;14.50;99.90;;;;;;5064142;28;20193;-77
2023/05/28 07:29:43;;;;;;;6.93;3.40;;;14.70;1.00;;;;;;5075073;28;20280;-77
2023/05/28 07:32:09;;;;;;;5.23;3.60;;;14.90;1.00;;;;;;5057819;28;20176;-77
2023/05/28 07:34:34;;;;;;;7.17;3.87;;;15.00;43.30;;;;;;5073854;28;20216;-77
2023/05/28 07:37:00;;;;;;;5.67;3.33;;;15.20;99.90;;;;;;5057382;28;20173;-76
2023/05/28 07:39:26;;;;;;;9.17;3.47;;;15.30;99.90;;;;;;5074671;28;20181;-76
2023/05/28 07:41:52;;;;;;;6.70;3.37;;;15.40;1.00;;;;;;5073837;28;20176;-77
2023/05/28 07:44:17;;;;;;;5.60;3.37;;;15.50;1.00;;;;;;5061593;28;20201;-75
2023/05/28 07:46:43;;;;;;;5.20;3.30;;;15.70;1.00;;;;;;5058947;28;20235;-76
2023/05/28 07:49:08;;;;;;;5.03;3.53;;;15.90;1.00;;;;;;5074968;28;20181;-76
2023/05/28 07:51:34;;;;;;;4.70;3.47;;;16.00;99.90;;;;;;5064500;28;20197;-77
2023/05/28 07:54:00;;;;;;;6.63;3.53;;;16.10;99.90;;;;;;5058711;28;20695;-77
2023/05/28 07:56:26;;;;;;;5.70;3.37;;;16.30;99.90;;;;;;5076563;28;20257;-76
2023/05/28 07:58:51;;;;;;;5.77;3.50;;;16.40;1.00;;;;;;5075172;28;20173;-76
2023/05/28 08:01:17;;;;;;;6.50;3.20;;;16.60;99.90;;;;;;5064488;28;20195;-77
2023/05/28 08:03:43;;;;;;;7.70;3.83;;;16.70;1.00;;;;;;5085095;28;20196;-76
2023/05/28 08:06:08;;;;;;;5.33;3.17;;;16.90;1.00;;;;;;5076487;28;20651;-77
2023/05/28 08:08:34;;;;;;;4.13;3.00;;;17.00;1.00;;;;;;5074046;28;20655;-78
2023/05/28 08:11:00;;;;;;;5.50;3.60;;;17.10;1.00;;;;;;5074739;28;20663;-76
2023/05/28 08:13:26;;;;;;;7.77;3.67;;;17.30;1.00;;;;;;5074820;28;20280;-77
2023/05/28 08:15:51;;;;;;;5.53;3.37;;;17.50;1.00;;;;;;5074997;28;20162;-76
2023/05/28 08:18:18;;;;;;;4.70;3.40;;;17.70;99.90;;;;;;5046653;28;20207;-77
2023/05/28 08:20:44;;;;;;;5.27;3.33;;;17.70;10.80;;;;;;5056245;28;20268;-77
2023/05/28 08:23:10;;;;;;;4.30;3.23;;;17.90;99.20;;;;;;5072135;28;20262;-76
2023/05/28 08:25:35;;;;;;;5.70;3.40;;;18.00;1.00;;;;;;5054266;28;20256;-80
2023/05/28 08:28:01;;;;;;;5.77;3.20;;;18.10;1.00;;;;;;5065006;28;20200;-79
2023/05/28 08:30:26;;;;;;;6.03;3.13;;;18.20;1.00;;;;;;5065635;28;20227;-78
2023/05/28 08:32:52;;;;;;;5.33;3.20;;;18.40;1.00;;;;;;5072943;28;20577;-77
2023/05/28 08:35:17;;;;;;;4.77;3.10;;;18.60;99.90;;;;;;5065026;28;20196;-77
2023/05/28 08:37:43;;;;;;;7.73;3.60;;;18.80;99.90;;;;;;5056105;28;20180;-77
2023/05/28 08:40:10;;;;;;;6.67;3.80;;;18.80;99.90;;;;;;5056792;28;20194;-75
2023/05/28 08:42:36;;;;;;;4.90;2.83;;;19.00;1.00;;;;;;5053809;28;20181;-77
2023/05/28 08:45:03;;;;;;;6.77;3.20;;;19.00;19.80;;;;;;5064779;28;20183;-77
2023/05/28 08:47:32;;;;;;;4.93;3.10;;;19.20;99.90;;;;;;5059850;28;20190;-78
2023/05/28 08:50:05;;;;;;;5.37;3.17;;;19.40;99.90;;;;;;5061007;28;20283;-78
2023/05/28 08:52:33;;;;;;;5.47;3.00;;;19.50;1.00;;;;;;5075075;28;20165;-79
2023/05/28 08:55:02;;;;;;;5.33;2.90;;;19.60;1.00;;;;;;5076423;28;20203;-78
2023/05/28 08:57:29;;;;;;;5.73;3.23;;;19.80;1.00;;;;;;5065971;28;20181;-76
2023/05/28 08:59:56;;;;;;;5.83;3.03;;;20.00;99.90;;;;;;5069474;28;20235;-74
2023/05/28 09:02:26;;;;;;;6.50;3.40;;;20.10;99.90;;;;;;5081669;28;20180;-77
2023/05/28 09:04:51;;;;;;;5.33;3.40;;;20.30;99.90;;;;;;5072238;28;20177;-80
2023/05/28 09:07:17;;;;;;;5.00;3.10;;;20.40;92.90;;;;;;5088948;28;20544;-80
2023/05/28 09:09:43;;;;;;;3.83;2.80;;;20.60;1.00;;;;;;5079863;28;20212;-79
2023/05/28 09:12:13;;;;;;;5.88;3.10;;;20.80;1.00;;;;;;5079544;28;20271;-78
2023/05/28 09:14:40;;;;;;;5.70;3.40;;;20.90;1.00;;;;;;5085338;28;20205;-77
2023/05/28 09:17:10;;;;;;;5.20;2.95;;;21.00;1.00;;;;;;5072429;28;20165;-78
2023/05/28 09:19:36;;;;;;;5.30;3.47;;;21.10;1.00;;;;;;5083028;28;20197;-74
2023/05/28 09:22:03;;;;;;;5.47;3.20;;;21.20;1.00;;;;;;5083387;28;20177;-78
2023/05/28 09:24:30;;;;;;;5.68;3.40;;;21.30;1.00;;;;;;5082028;28;20207;-78
2023/05/28 09:26:57;;;;;;;5.80;3.08;;;21.30;1.00;;;;;;5081404;28;20233;-79
2023/05/28 09:29:24;;;;;;;6.80;3.30;;;21.50;1.00;;;;;;5082482;28;20176;-83
2023/05/28 09:31:58;;;;;;;5.65;2.97;;;21.60;1.00;;;;;;5086813;28;20169;-80
2023/05/28 09:34:31;;;;;;;6.00;2.92;;;21.80;1.00;;;;;;5084663;28;20212;-79
2023/05/28 09:37:00;;;;;;;5.57;3.00;;;21.90;1.00;;;;;;5067831;28;20177;-78
2023/05/28 09:39:26;;;;;;;5.30;3.10;;;22.00;1.00;;;;;;5081905;28;20185;-78
2023/05/28 09:42:15;;;;;;;5.47;2.92;;;22.10;1.00;;;;;;5072461;28;20181;-78
2023/05/28 09:44:42;;;;;;;5.45;3.30;;;22.30;1.00;;;;;;5065063;28;20201;-79
2023/05/28 09:47:21;;;;;;;6.07;3.15;;;22.30;1.00;;;;;;5062656;28;20201;-78
2023/05/28 09:49:48;;;;;;;3.92;2.85;;;22.30;1.00;;;;;;5061298;28;20199;-79
2023/05/28 09:52:19;;;;;;;7.10;3.80;;;22.40;1.00;;;;;;5078061;28;20173;-77
2023/05/28 09:54:51;;;;;;;7.13;3.20;;;22.50;1.00;;;;;;5063385;28;20279;-78
2023/05/28 09:57:22;;;;;;;8.00;3.60;;;22.70;1.00;;;;;;5080455;28;20160;-78
2023/05/28 09:59:53;;;;;;;5.93;2.92;;;22.90;1.00;;;;;;5063900;28;20256;-77
2023/05/28 10:03:00;;;;;;;4.45;3.05;;;23.00;1.00;;;;;;5081078;28;20171;-77
2023/05/28 10:05:30;;;;;;;4.85;3.05;;;22.90;1.00;;;;;;5080081;28;20176;-78
2023/05/28 10:07:58;;;;;;;7.78;4.20;;;23.20;1.00;;;;;;5077900;28;20177;-77
2023/05/28 10:10:27;;;;;;;4.28;3.00;;;23.40;1.00;;;;;;5058744;28;20201;-78
2023/05/28 10:12:54;;;;;;;5.75;3.35;;;23.50;1.00;;;;;;5059267;28;20205;-79
2023/05/28 10:15:20;;;;;;;5.80;3.28;;;23.70;1.00;;;;;;5059593;28;20527;-77
2023/05/28 10:17:47;;;;;;;4.70;3.00;;;23.80;1.00;;;;;;5076948;28;20172;-78
2023/05/28 10:20:14;;;;;;;6.32;3.20;;;23.90;1.00;;;;;;5076467;28;20181;-78
2023/05/28 10:22:40;;;;;;;4.38;2.92;;;24.10;1.00;;;;;;5078385;28;20180;-78
2023/05/28 10:25:08;;;;;;;5.63;3.30;;;24.20;1.00;;;;;;5059104;28;20173;-77
2023/05/28 10:27:36;;;;;;;5.20;3.17;;;24.20;99.90;;;;;;5077249;28;20271;-78
2023/05/28 10:30:08;;;;;;;4.28;2.90;;;24.20;1.00;;;;;;5059401;28;20264;-78
2023/05/28 10:32:43;;;;;;;5.57;3.50;;;24.40;1.00;;;;;;5059089;28;20181;-77
2023/05/28 10:35:11;;;;;;;4.90;2.85;;;24.50;99.90;;;;;;5077875;28;20279;-78
2023/05/28 10:37:37;;;;;;;5.95;2.85;;;24.40;99.90;;;;;;5059848;28;20169;-77
2023/05/28 10:40:03;;;;;;;5.80;4.03;;;24.30;99.90;;;;;;5076704;28;20173;-77
2023/05/28 10:42:29;;;;;;;5.00;3.17;;;24.30;99.90;;;;;;5059777;28;20176;-78
2023/05/28 10:45:04;;;;;;;6.50;4.55;;;24.60;99.90;;;;;;5060111;28;20252;-77
2023/05/28 10:47:33;;;;;;;5.97;3.30;;;24.70;99.90;;;;;;5059540;28;20241;-79
2023/05/28 10:50:19;;;;;;;6.57;4.15;;;24.90;99.90;;;;;;5058175;28;20208;-77
2023/05/28 10:53:05;;;;;;;5.45;3.20;;;24.80;99.90;;;;;;5076319;28;20583;-76
2023/05/28 10:55:50;;;;;;;5.03;3.40;;;24.90;99.90;;;;;;5057177;28;20185;-77
2023/05/28 10:58:36;;;;;;;6.03;3.38;;;24.70;99.90;;;;;;5043567;28;20647;-78
2023/05/28 11:01:05;;;;;;;4.68;3.42;;;25.00;99.90;;;;;;5066916;28;20235;-78
2023/05/28 11:03:51;;;;;;;4.93;3.10;;;25.00;99.90;;;;;;5077078;28;20189;-77
2023/05/28 11:06:16;;;;;;;4.90;3.13;;;25.20;99.90;;;;;;5076350;28;20234;-78
2023/05/28 11:08:47;;;;;;;6.07;4.00;;;25.40;99.90;;;;;;5075826;28;20176;-78
2023/05/28 11:11:14;;;;;;;4.50;3.10;;;25.30;99.90;;;;;;5038826;28;20647;-77
2023/05/28 11:13:48;;;;;;;5.10;3.17;;;25.40;99.90;;;;;;5074704;28;20193;-78
2023/05/28 11:16:18;;;;;;;4.78;3.03;;;25.30;99.90;;;;;;5072319;28;20268;-78
2023/05/28 11:19:08;;;;;;;5.45;3.00;;;25.40;99.90;;;;;;5067976;28;20178;-77
2023/05/28 11:21:48;;;;;;;5.07;3.08;;;25.50;99.90;;;;;;5075902;28;20171;-78
2023/05/28 11:24:14;;;;;;;5.90;3.00;;;25.60;99.90;;;;;;5075669;28;20196;-77
2023/05/28 11:26:40;;;;;;;4.40;2.90;;;25.90;99.90;;;;;;5076032;28;20227;-78
2023/05/28 11:29:06;;;;;;;5.72;2.92;;;26.00;99.90;;;;;;5059931;28;20188;-78
2023/05/28 11:31:41;;;;;;;3.33;2.83;;;26.00;99.90;;;;;;5076507;28;20200;-77
2023/05/28 11:34:08;;;;;;;5.28;3.00;;;25.70;99.90;;;;;;5076035;28;20211;-77
2023/05/28 11:36:42;;;;;;;6.07;3.05;;;25.90;99.90;;;;;;5039080;28;20197;-78
2023/05/28 11:39:09;;;;;;;5.70;2.85;;;25.90;99.90;;;;;;5057020;28;20173;-75
2023/05/28 11:41:35;;;;;;;4.45;2.97;;;25.90;99.90;;;;;;5077658;28;20198;-80
2023/05/28 11:44:01;;;;;;;5.20;3.17;;;26.00;99.90;;;;;;5081109;28;20283;-77
2023/05/28 11:46:27;;;;;;;4.53;2.65;;;25.90;99.90;;;;;;5082369;28;20187;-80
2023/05/28 11:48:52;;;;;;;4.43;2.78;;;26.00;99.90;;;;;;5062939;28;20169;-79
2023/05/28 11:51:19;;;;;;;4.85;2.92;;;26.10;99.90;;;;;;5075636;28;20189;-78
2023/05/28 11:53:46;;;;;;;4.07;2.90;;;26.10;99.90;;;;;;5076501;28;20185;-78
2023/05/28 11:56:12;;;;;;;4.88;3.08;;;26.50;99.90;;;;;;5062879;28;20239;-77
2023/05/28 11:58:44;;;;;;;4.93;2.97;;;26.90;99.90;;;;;;5057500;28;20244;-78
2023/05/28 12:01:14;;;;;;;3.90;2.80;;;27.10;99.90;;;;;;5075540;28;20165;-78
2023/05/28 12:03:40;;;;;;;3.30;2.70;;;27.20;99.90;;;;;;5057603;28;20675;-77
2023/05/28 12:06:05;;;;;;;5.15;2.90;;;27.50;99.90;;;;;;5073878;28;20173;-76
2023/05/28 12:08:31;;;;;;;4.72;2.92;;;27.70;99.90;;;;;;5056119;28;20169;-77
2023/05/28 12:11:02;;;;;;;5.47;2.97;;;27.80;99.90;;;;;;5054928;28;20698;-78
2023/05/28 12:13:32;;;;;;;4.35;2.85;;;27.80;99.90;;;;;;5082547;28;20200;-78
2023/05/28 12:16:12;;;;;;;3.47;2.78;;;27.90;99.90;;;;;;5056422;28;20177;-77
2023/05/28 12:18:42;;;;;;;4.65;2.90;;;27.80;99.90;;;;;;5066896;28;20195;-78
2023/05/28 12:21:20;;;;;;;4.88;3.00;;;27.90;99.90;;;;;;5073715;28;20181;-77
2023/05/28 12:23:46;;;;;;;4.63;2.70;;;28.00;99.90;;;;;;5074631;28;20196;-76
2023/05/28 12:26:14;;;;;;;4.47;2.80;;;28.10;99.90;;;;;;5068680;28;20264;-77
2023/05/28 12:28:41;;;;;;;4.15;2.72;;;28.10;99.90;;;;;;5075535;28;20191;-76
2023/05/28 12:31:08;;;;;;;5.35;3.00;;;28.00;99.90;;;;;;5062227;28;20579;-76
2023/05/28 12:33:34;;;;;;;3.72;2.53;;;27.80;99.90;;;;;;5064074;28;20208;-77
2023/05/28 12:36:02;;;;;;;4.40;2.97;;;28.00;99.90;;;;;;5115304;22;20225;-81
2023/05/28 12:38:28;;;;;;;4.97;3.15;;;27.70;99.90;;;;;;5074780;28;20552;-82
2023/05/28 12:40:54;;;;;;;3.63;2.70;;;27.40;99.90;;;;;;5061511;28;20169;-81
2023/05/28 12:43:20;;;;;;;4.47;2.83;;;27.40;99.90;;;;;;5074462;28;20199;-81
2023/05/28 12:45:46;;;;;;;4.40;2.70;;;27.70;99.90;;;;;;5090121;28;20201;-81
2023/05/28 12:48:11;;;;;;;3.80;2.40;;;27.60;99.90;;;;;;5061442;28;20176;-82
2023/05/28 12:50:37;;;;;;;4.38;2.78;;;27.80;99.90;;;;;;5073944;28;20168;-82
2023/05/28 12:53:04;;;;;;;5.38;2.88;;;28.20;99.90;;;;;;5077605;28;20180;-82
2023/05/28 12:55:31;;;;;;;3.85;2.85;;;28.10;99.90;;;;;;5074991;28;20215;-80